Saticoy, California
Current Conditions -  °F | °C
As of 4:51 AM on Tuesday 21 Oct 2014 (Local Time) from KOXR Reporting Station
Clear Clear  
Wind Chill: 14°   Ceiling: Unl
Heat Index: 14°   Visibility: 10mi
Dew Point: 12°   Wind: 5mph
Humidity: 87%   Direction: 50°NE
Pressure: 29.88"   Gusts: NA
Location:  34.287°N, 119.172°W
Report Text: KOXR 211151Z AUTO 05004KT 10SM CLR 14/12 A2988 RMK AO2 SLP118 T01440122 10178 20144 58001
Loading
Personal Weather Stations






























Interactive Weather Map
Tropical Storm Tracking
New forecast layout! Learn more

10-Day Weather Forecast

Advertisements
Track Severe Weather on mobile